createdAt,value
2022-12-17T00:02:19.524Z,-5.40
2022-12-17T00:05:39.677Z,-5.40
2022-12-17T00:09:00.144Z,-5.40
2022-12-17T00:12:20.398Z,-5.40
2022-12-17T00:15:40.744Z,-5.40
2022-12-17T00:19:01.309Z,-5.40
2022-12-17T00:22:21.821Z,-5.40
2022-12-17T00:25:43.465Z,-5.30
2022-12-17T00:29:04.686Z,-5.30
2022-12-17T00:32:25.103Z,-5.30
2022-12-17T00:35:45.354Z,-5.20
2022-12-17T00:39:10.187Z,-5.30
2022-12-17T00:42:30.445Z,-5.30
2022-12-17T00:45:50.887Z,-5.30
2022-12-17T00:49:11.169Z,-5.30
2022-12-17T00:52:31.585Z,-5.30
2022-12-17T00:55:52.033Z,-5.30
2022-12-17T00:59:12.317Z,-5.20
2022-12-17T01:02:32.873Z,-5.20
2022-12-17T01:05:53.093Z,-5.30
2022-12-17T01:09:14.097Z,-5.20
2022-12-17T01:12:34.306Z,-5.20
2022-12-17T01:15:54.621Z,-5.20
2022-12-17T01:19:16.953Z,-5.20
2022-12-17T01:22:37.527Z,-5.20
2022-12-17T01:25:57.842Z,-5.20
2022-12-17T01:29:18.244Z,-5.20
2022-12-17T01:32:38.574Z,-5.20
2022-12-17T01:35:58.962Z,-5.20
2022-12-17T01:39:19.321Z,-5.20
2022-12-17T01:42:39.495Z,-5.20
2022-12-17T01:46:01.913Z,-5.20
2022-12-17T01:49:22.331Z,-5.20
2022-12-17T01:52:42.658Z,-5.10
2022-12-17T01:56:03.139Z,-5.10
2022-12-17T01:59:23.780Z,-5.20
2022-12-17T02:02:43.759Z,-5.10
2022-12-17T02:06:09.825Z,-5.10
2022-12-17T02:09:34.853Z,-5.00
2022-12-17T02:13:16.121Z,-4.90
2022-12-17T02:16:57.362Z,-4.90
2022-12-17T02:20:50.669Z,-4.80
2022-12-17T02:24:15.749Z,-4.80
2022-12-17T02:27:35.825Z,-4.80
2022-12-17T02:30:56.033Z,-4.70
2022-12-17T02:34:16.300Z,-4.60
2022-12-17T02:37:36.359Z,-4.60
2022-12-17T02:40:56.794Z,-4.70
2022-12-17T02:44:17.134Z,-4.60
2022-12-17T02:47:37.361Z,-4.60
2022-12-17T02:50:57.881Z,-4.60
2022-12-17T02:54:20.376Z,-4.60
2022-12-17T02:57:43.735Z,-4.60
2022-12-17T03:01:04.753Z,-4.50
2022-12-17T03:04:25.073Z,-4.40
2022-12-17T03:07:45.480Z,-4.40
2022-12-17T03:11:06.069Z,-4.40
2022-12-17T03:14:26.505Z,-4.40
2022-12-17T03:17:48.249Z,-4.40
2022-12-17T03:21:11.693Z,-4.40
2022-12-17T03:24:32.045Z,-4.40
2022-12-17T03:27:52.268Z,-4.40
2022-12-17T03:31:12.614Z,-4.40
2022-12-17T03:34:33.089Z,-4.40
2022-12-17T03:37:53.578Z,-4.50
2022-12-17T03:41:13.978Z,-4.40
2022-12-17T03:44:34.324Z,-4.40
2022-12-17T03:47:54.596Z,-4.40
2022-12-17T03:51:14.932Z,-4.40
2022-12-17T03:54:35.358Z,-4.40
2022-12-17T03:57:55.786Z,-4.40
2022-12-17T04:01:16.277Z,-4.40
2022-12-17T04:04:36.625Z,-4.40
2022-12-17T04:07:57.069Z,-4.40
2022-12-17T04:11:17.503Z,-4.40
2022-12-17T04:14:37.890Z,-4.40
2022-12-17T04:17:58.289Z,-4.40
2022-12-17T07:50:24.000Z,-2.70
2022-12-17T07:53:44.274Z,-2.70
2022-12-17T07:57:04.671Z,-2.70
2022-12-17T08:00:25.554Z,-2.70
2022-12-17T08:03:45.953Z,-2.60
2022-12-17T08:07:10.370Z,-2.60
2022-12-17T08:10:32.416Z,-2.60
2022-12-17T08:13:52.830Z,-2.50
2022-12-17T08:17:13.175Z,-2.50
2022-12-17T08:20:33.788Z,-2.50
2022-12-17T08:23:54.151Z,-2.50
2022-12-17T08:27:14.649Z,-2.40
2022-12-17T08:30:35.002Z,-2.40
2022-12-17T08:33:55.287Z,-2.40
2022-12-17T08:37:15.685Z,-2.30
2022-12-17T08:40:35.940Z,-2.20
2022-12-17T08:43:57.182Z,-2.10
2022-12-17T08:47:17.291Z,-2.10
2022-12-17T08:50:37.833Z,-2.00
2022-12-17T08:53:58.398Z,-1.90
2022-12-17T08:57:30.716Z,-1.80
2022-12-17T09:00:51.735Z,-1.70
2022-12-17T09:04:13.177Z,-1.60
2022-12-17T09:07:33.749Z,-1.50
2022-12-17T09:10:54.515Z,-1.40
2022-12-17T09:14:14.798Z,-1.30
2022-12-17T09:17:35.122Z,-1.30
2022-12-17T09:20:55.521Z,-1.20
2022-12-17T09:24:15.939Z,-1.10
2022-12-17T09:27:36.538Z,-1.10
2022-12-17T09:30:57.020Z,-1.00
2022-12-17T09:34:17.092Z,-0.80
2022-12-17T09:37:37.414Z,-0.70
2022-12-17T09:40:58.256Z,-0.50
2022-12-17T09:44:31.536Z,-0.40
2022-12-17T09:48:00.468Z,-0.20
2022-12-17T09:51:20.493Z,-0.10
2022-12-17T09:54:48.724Z,0.00
2022-12-17T09:58:09.004Z,0.10
2022-12-17T10:01:58.605Z,0.30
2022-12-17T10:05:27.087Z,0.40
2022-12-17T10:08:47.202Z,0.60
2022-12-17T10:12:07.412Z,0.70
2022-12-17T10:15:31.945Z,0.80
2022-12-17T10:18:52.527Z,0.90
2022-12-17T10:22:12.947Z,1.00
2022-12-17T10:25:35.171Z,1.10
2022-12-17T10:28:55.701Z,1.20
2022-12-17T10:32:34.840Z,1.40
2022-12-17T10:35:55.315Z,1.60
2022-12-17T10:39:16.090Z,1.80
2022-12-17T10:42:44.020Z,2.00
2022-12-17T10:46:12.714Z,2.20
2022-12-17T10:49:42.483Z,2.40
2022-12-17T10:53:04.039Z,2.50
2022-12-17T10:56:24.550Z,2.80
2022-12-17T10:59:54.052Z,2.90
2022-12-17T11:03:14.218Z,3.10
2022-12-17T11:06:47.981Z,3.30
2022-12-17T11:10:10.364Z,3.40
2022-12-17T11:13:47.607Z,3.50
2022-12-17T11:17:14.227Z,3.60
2022-12-17T11:21:25.471Z,3.80
2022-12-17T11:24:56.911Z,3.90
2022-12-17T11:28:24.375Z,3.90
2022-12-17T11:32:03.705Z,3.90
2022-12-17T11:35:47.571Z,3.90
2022-12-17T11:39:16.110Z,3.80
2022-12-17T11:42:42.421Z,3.70
2022-12-17T11:46:30.654Z,3.70
2022-12-17T11:49:59.060Z,3.70
2022-12-17T11:53:38.374Z,3.70
2022-12-17T11:57:30.924Z,3.70
2022-12-17T12:01:20.778Z,3.70
2022-12-17T12:04:51.106Z,3.70
2022-12-17T12:08:37.313Z,3.80
2022-12-17T12:12:22.640Z,3.90
2022-12-17T12:16:10.491Z,3.90
2022-12-17T12:19:36.852Z,3.90
2022-12-17T12:23:20.116Z,3.90
2022-12-17T12:26:46.416Z,3.90
2022-12-17T12:30:20.972Z,4.00
2022-12-17T12:33:56.873Z,4.10
2022-12-17T12:37:19.380Z,4.20
2022-12-17T12:40:40.846Z,4.20
2022-12-17T12:44:02.836Z,4.30
2022-12-17T12:47:25.526Z,4.50
2022-12-17T12:51:09.621Z,4.50
2022-12-17T12:54:40.305Z,4.60
2022-12-17T12:58:19.311Z,4.50
2022-12-17T13:01:39.997Z,4.40
2022-12-17T13:05:01.311Z,4.30
2022-12-17T13:08:09.036Z,4.30
2022-12-17T13:11:25.763Z,4.20
2022-12-17T13:14:48.461Z,4.10
2022-12-17T13:17:59.527Z,4.00
2022-12-17T13:21:02.486Z,4.00
2022-12-17T13:24:11.353Z,3.90
2022-12-17T13:27:34.071Z,3.90
2022-12-17T13:30:36.309Z,3.90
2022-12-17T13:33:50.153Z,3.90
2022-12-17T13:36:54.820Z,3.90
2022-12-17T13:40:15.419Z,3.90
2022-12-17T13:43:19.090Z,3.90
2022-12-17T13:46:21.844Z,3.90
2022-12-17T13:49:27.163Z,3.90
2022-12-17T13:52:29.664Z,3.90
2022-12-17T13:55:31.322Z,3.90
2022-12-17T13:58:33.225Z,3.90
2022-12-17T14:01:44.254Z,3.90
2022-12-17T14:04:52.411Z,4.00
2022-12-17T14:07:54.558Z,4.00
2022-12-17T14:11:18.698Z,3.90
2022-12-17T14:14:20.455Z,3.90
2022-12-17T14:17:23.948Z,3.90
2022-12-17T14:20:27.600Z,3.90
2022-12-17T14:23:30.071Z,3.80
2022-12-17T14:26:31.744Z,3.70
2022-12-17T14:29:33.610Z,3.70
2022-12-17T14:32:36.045Z,3.70
2022-12-17T14:35:39.597Z,3.70
2022-12-17T14:38:49.237Z,3.60
2022-12-17T14:42:10.431Z,3.70
2022-12-17T14:45:15.208Z,3.70
2022-12-17T14:48:16.850Z,3.70
2022-12-17T14:51:31.916Z,3.70
2022-12-17T14:54:33.569Z,3.70
2022-12-17T14:57:35.233Z,3.70
2022-12-17T15:01:07.290Z,3.70
2022-12-17T15:04:09.046Z,3.70
2022-12-17T15:07:18.101Z,3.60
2022-12-17T15:10:21.311Z,3.60
2022-12-17T15:13:23.061Z,3.60
2022-12-17T15:16:24.829Z,3.50
2022-12-17T15:19:26.704Z,3.50
2022-12-17T15:22:28.340Z,3.50
2022-12-17T15:25:30.142Z,3.30
2022-12-17T15:28:31.789Z,3.30
2022-12-17T15:31:35.611Z,3.30
2022-12-17T15:34:37.740Z,3.10
2022-12-17T15:37:39.476Z,3.10
2022-12-17T15:40:41.404Z,3.00
2022-12-17T15:43:43.042Z,2.90
2022-12-17T15:46:44.768Z,2.80
2022-12-17T15:49:46.443Z,2.70
2022-12-17T15:52:48.173Z,2.50
2022-12-17T15:55:49.834Z,2.50
2022-12-17T15:58:51.606Z,2.40
2022-12-17T16:01:53.607Z,2.30
2022-12-17T16:04:55.478Z,2.20
2022-12-17T16:08:02.400Z,2.10
2022-12-17T16:11:09.226Z,2.00
2022-12-17T16:14:10.889Z,1.90
2022-12-17T16:17:12.584Z,1.80
2022-12-17T16:20:14.530Z,1.70
2022-12-17T16:23:16.598Z,1.60
2022-12-17T16:26:18.292Z,1.50
2022-12-17T16:29:20.171Z,1.40
2022-12-17T16:32:21.901Z,1.40
2022-12-17T16:35:24.054Z,1.20
2022-12-17T16:38:25.724Z,1.20
2022-12-17T16:41:27.421Z,1.10
2022-12-17T16:44:29.071Z,1.10
2022-12-17T16:47:30.813Z,1.00
2022-12-17T16:50:32.824Z,1.00
2022-12-17T16:53:34.467Z,1.00
2022-12-17T16:56:40.515Z,0.90
2022-12-17T16:59:42.729Z,0.80
2022-12-17T17:02:52.804Z,0.80
2022-12-17T17:05:55.009Z,0.60
2022-12-17T17:08:57.023Z,0.60
2022-12-17T17:11:59.277Z,0.60
2022-12-17T17:15:00.950Z,0.60
2022-12-17T17:18:02.949Z,0.60
2022-12-17T17:21:34.905Z,0.50
2022-12-17T17:24:36.557Z,0.40
2022-12-17T17:27:38.348Z,0.40
2022-12-17T17:30:40.237Z,0.30
2022-12-17T17:33:43.162Z,0.30
2022-12-17T17:36:44.854Z,0.20
2022-12-17T17:39:46.585Z,0.10
2022-12-17T17:42:51.669Z,0.00
2022-12-17T17:45:58.665Z,0.00
2022-12-17T17:49:01.410Z,0.00
2022-12-17T17:52:11.345Z,-0.10
2022-12-17T17:55:16.518Z,-0.10
2022-12-17T17:58:18.159Z,-0.10
2022-12-17T18:01:22.458Z,-0.10
2022-12-17T18:04:24.359Z,-0.20
2022-12-17T18:07:27.160Z,-0.20
2022-12-17T18:10:29.699Z,-0.20
2022-12-17T18:13:50.382Z,-0.20
2022-12-17T18:16:52.017Z,-0.30
2022-12-17T18:19:53.929Z,-0.30
2022-12-17T18:22:55.577Z,-0.30
2022-12-17T18:26:04.267Z,-0.30
2022-12-17T18:29:10.601Z,-0.30
2022-12-17T18:32:12.232Z,-0.30
2022-12-17T18:35:13.869Z,-0.30
2022-12-17T18:38:15.594Z,-0.30
2022-12-17T18:41:36.787Z,-0.30
2022-12-17T18:44:43.403Z,-0.40
2022-12-17T18:47:45.157Z,-0.40
2022-12-17T18:50:46.842Z,-0.40
2022-12-17T18:53:49.256Z,-0.50
2022-12-17T18:57:01.081Z,-0.50
2022-12-17T19:00:04.759Z,-0.50
2022-12-17T19:03:06.730Z,-0.60
2022-12-17T19:06:08.621Z,-0.70
2022-12-17T19:09:17.949Z,-0.70
2022-12-17T19:12:19.591Z,-0.70
2022-12-17T19:15:24.284Z,-0.70
2022-12-17T19:18:25.937Z,-0.70
2022-12-17T19:21:27.850Z,-0.70
2022-12-17T19:24:29.516Z,-0.60
2022-12-17T19:27:31.312Z,-0.50
2022-12-17T19:30:33.464Z,-0.50
2022-12-17T19:33:35.152Z,-0.40
2022-12-17T19:36:37.386Z,-0.40
2022-12-17T19:39:42.147Z,-0.40
2022-12-17T19:42:43.907Z,-0.40
2022-12-17T19:45:45.614Z,-0.40
2022-12-17T19:48:48.865Z,-0.40
2022-12-17T19:51:51.261Z,-0.40
2022-12-17T19:54:52.907Z,-0.40
2022-12-17T19:57:54.721Z,-0.30
2022-12-17T20:01:11.147Z,-0.40
2022-12-17T20:04:13.433Z,-0.40
2022-12-17T20:07:15.133Z,-0.30
2022-12-17T20:10:17.070Z,-0.30
2022-12-17T20:13:18.835Z,-0.30
2022-12-17T20:16:20.521Z,-0.30
2022-12-17T20:19:27.264Z,-0.30
2022-12-17T20:22:29.273Z,-0.30
2022-12-17T20:25:31.004Z,-0.30
2022-12-17T20:28:33.520Z,-0.30
2022-12-17T20:31:35.316Z,-0.30
2022-12-17T20:34:37.086Z,-0.30
2022-12-17T20:37:38.745Z,-0.40
2022-12-17T20:40:41.496Z,-0.40
2022-12-17T20:43:43.165Z,-0.40
2022-12-17T20:46:44.831Z,-0.50
2022-12-17T20:49:46.616Z,-0.50
2022-12-17T20:52:48.254Z,-0.50
2022-12-17T20:56:00.645Z,-0.40
2022-12-17T20:59:06.006Z,-0.40
2022-12-17T21:02:08.153Z,-0.40
2022-12-17T21:05:10.233Z,-0.40
2022-12-17T21:08:11.870Z,-0.30
2022-12-17T21:11:13.703Z,-0.30
2022-12-17T21:14:16.567Z,-0.30
2022-12-17T21:17:18.288Z,-0.40
2022-12-17T21:20:20.327Z,-0.40
2022-12-17T21:23:22.363Z,-0.40
2022-12-17T21:26:26.696Z,-0.40
2022-12-17T21:29:28.559Z,-0.40
2022-12-17T21:32:33.647Z,-0.40
2022-12-17T21:35:35.645Z,-0.50
2022-12-17T21:38:37.884Z,-0.50
2022-12-17T21:41:43.353Z,-0.50
2022-12-17T21:44:46.710Z,-0.50
2022-12-17T21:47:48.513Z,-0.50
2022-12-17T21:50:50.155Z,-0.50
2022-12-17T21:53:57.452Z,-0.50
2022-12-17T21:56:59.482Z,-0.60
2022-12-17T22:00:01.381Z,-0.60
2022-12-17T22:03:03.036Z,-0.60
2022-12-17T22:06:07.066Z,-0.60
2022-12-17T22:09:12.451Z,-0.70
2022-12-17T22:12:39.979Z,-0.70
2022-12-17T22:15:48.307Z,-0.70
2022-12-17T22:18:50.993Z,-0.70
2022-12-17T22:21:57.678Z,-0.80
2022-12-17T22:25:04.458Z,-0.80
2022-12-17T22:28:10.868Z,-0.80
2022-12-17T22:31:35.042Z,-0.80
2022-12-17T22:35:49.010Z,-0.80
2022-12-17T22:41:59.417Z,-0.70
2022-12-17T22:44:46.296Z,-0.70
2022-12-17T22:45:10.024Z,-0.70
2022-12-17T22:48:13.288Z,-0.80
2022-12-17T22:51:23.488Z,-0.80
2022-12-17T22:54:31.014Z,-0.80
2022-12-17T22:57:36.558Z,-0.80
2022-12-17T23:00:39.656Z,-0.80
2022-12-17T23:03:41.695Z,-0.80
2022-12-17T23:06:47.659Z,-0.80
2022-12-17T23:09:49.446Z,-0.80
2022-12-17T23:12:51.465Z,-0.80
2022-12-17T23:15:56.190Z,-0.80
2022-12-17T23:19:00.395Z,-0.70
2022-12-17T23:22:02.053Z,-0.70
2022-12-17T23:25:03.903Z,-0.70
2022-12-17T23:28:05.562Z,-0.70
2022-12-17T23:31:11.514Z,-0.70
2022-12-17T23:34:13.232Z,-0.70
2022-12-17T23:37:14.875Z,-0.80
2022-12-17T23:40:16.624Z,-0.90
2022-12-17T23:43:18.362Z,-0.90
2022-12-17T23:46:20.219Z,-0.90
2022-12-17T23:49:22.140Z,-0.90
2022-12-17T23:52:23.814Z,-0.90
2022-12-17T23:55:25.472Z,-0.90
2022-12-17T23:58:27.120Z,-0.90
